Time;durP1;ratioP1;P1;durP2;ratioP2;P2;SDS_P1;SDS_P2;PMS_P1;PMS_P2;Temp;Humidity;BMP_temperature;BMP_pressure;BME280_temperature;BME280_humidity;BME280_pressure;Samples;Min_cycle;Max_cycle;Signal;HPM_P1;HPM_P2
2023/12/27 00:00:24;;;;;;;1.60;0.90;;;;;;;;;;5011065;28;20211;-73
2023/12/27 00:02:49;;;;;;;1.67;1.33;;;;;;;;;;5026299;28;20242;-72
2023/12/27 00:05:14;;;;;;;0.83;0.83;;;;;;;;;;5013377;28;20179;-73
2023/12/27 00:07:40;;;;;;;0.90;0.90;;;;;;;;;;5028239;28;20174;-73
2023/12/27 00:10:05;;;;;;;0.90;0.90;;;;;;;;;;5026721;28;20222;-73
2023/12/27 00:12:30;;;;;;;2.27;0.87;;;;;;;;;;5027506;28;20273;-73
2023/12/27 00:14:56;;;;;;;1.47;1.20;;;;;;;;;;5012986;28;20283;-73
2023/12/27 00:17:21;;;;;;;2.13;1.10;;;;;;;;;;5012219;28;20178;-73
2023/12/27 00:19:46;;;;;;;1.13;1.00;;;;;;;;;;5003933;28;20217;-72
2023/12/27 00:22:14;;;;;;;0.70;0.70;;;;;;;;;;5013928;28;20316;-73
2023/12/27 00:24:39;;;;;;;1.03;1.00;;;;;;;;;;5025317;28;20182;-72
2023/12/27 00:27:04;;;;;;;1.50;1.37;;;;;;;;;;5023605;28;20173;-72
2023/12/27 00:29:30;;;;;;;1.40;1.30;;;;;;;;;;5025910;28;20217;-73
2023/12/27 00:31:55;;;;;;;2.40;1.23;;;;;;;;;;5002148;28;20177;-72
2023/12/27 00:34:20;;;;;;;1.73;1.63;;;;;;;;;;5024126;28;20181;-72
2023/12/27 00:36:45;;;;;;;2.23;1.70;;;;;;;;;;5028983;28;20240;-72
2023/12/27 00:39:11;;;;;;;2.43;2.10;;;;;;;;;;5012101;28;20482;-72
2023/12/27 00:41:36;;;;;;;2.37;2.17;;;;;;;;;;5011409;28;20236;-73
2023/12/27 00:44:02;;;;;;;3.13;2.30;;;;;;;;;;5010201;28;20192;-73
2023/12/27 00:46:27;;;;;;;1.73;1.43;;;;;;;;;;5028747;28;20174;-73
2023/12/27 00:48:52;;;;;;;3.20;1.80;;;;;;;;;;5015041;28;20205;-72
2023/12/27 00:51:19;;;;;;;1.27;1.17;;;;;;;;;;5005551;28;20218;-73
2023/12/27 00:53:44;;;;;;;2.20;2.00;;;;;;;;;;5013110;28;20200;-73
2023/12/27 00:56:09;;;;;;;3.03;2.30;;;;;;;;;;5022093;28;20273;-72
2023/12/27 00:58:34;;;;;;;2.53;2.27;;;;;;;;;;5009716;28;20217;-72
2023/12/27 01:01:00;;;;;;;2.17;2.00;;;;;;;;;;5028877;28;20252;-72
2023/12/27 01:03:25;;;;;;;2.27;2.00;;;;;;;;;;5009947;28;20176;-73
2023/12/27 01:05:50;;;;;;;2.80;2.60;;;;;;;;;;5007682;28;20202;-73
2023/12/27 01:08:15;;;;;;;5.13;2.53;;;;;;;;;;5008099;28;20232;-72
2023/12/27 01:10:40;;;;;;;2.57;2.37;;;;;;;;;;5025227;28;20184;-73
2023/12/27 01:13:06;;;;;;;3.90;2.70;;;;;;;;;;5026676;28;20182;-72
2023/12/27 01:15:31;;;;;;;2.67;2.47;;;;;;;;;;5007528;28;20187;-72
2023/12/27 01:17:56;;;;;;;3.27;2.63;;;;;;;;;;5013070;28;20210;-73
2023/12/27 01:20:21;;;;;;;5.43;2.60;;;;;;;;;;5020679;28;20290;-73
2023/12/27 01:22:47;;;;;;;2.50;2.30;;;;;;;;;;5022732;28;20221;-73
2023/12/27 01:25:12;;;;;;;2.80;2.37;;;;;;;;;;5005331;28;20237;-73
2023/12/27 01:27:38;;;;;;;3.97;2.80;;;;;;;;;;5021276;28;20185;-72
2023/12/27 01:30:03;;;;;;;5.07;2.60;;;;;;;;;;5023135;28;20183;-73
2023/12/27 01:32:28;;;;;;;2.13;1.93;;;;;;;;;;5014696;28;20183;-73
2023/12/27 01:34:54;;;;;;;4.30;2.50;;;;;;;;;;5009592;28;20191;-73
2023/12/27 01:37:19;;;;;;;2.67;2.03;;;;;;;;;;5021891;28;20182;-73
2023/12/27 01:39:44;;;;;;;1.90;1.77;;;;;;;;;;5029606;28;20217;-73
2023/12/27 01:42:09;;;;;;;2.53;2.33;;;;;;;;;;5031389;28;20269;-73
2023/12/27 01:44:35;;;;;;;2.93;2.40;;;;;;;;;;5028767;28;20183;-73
2023/12/27 01:47:00;;;;;;;3.43;2.37;;;;;;;;;;5022098;28;20185;-73
2023/12/27 01:49:25;;;;;;;2.97;2.40;;;;;;;;;;5034815;28;20197;-73
2023/12/27 01:51:50;;;;;;;3.53;2.23;;;;;;;;;;5031624;28;20190;-73
2023/12/27 01:54:15;;;;;;;2.63;1.90;;;;;;;;;;5015507;28;20180;-73
2023/12/27 01:56:43;;;;;;;1.73;1.63;;;;;;;;;;5011602;28;20190;-73
2023/12/27 01:59:08;;;;;;;2.17;1.97;;;;;;;;;;5027067;28;20182;-73
2023/12/27 02:01:33;;;;;;;2.37;1.80;;;;;;;;;;5031570;28;20334;-73
2023/12/27 02:03:59;;;;;;;3.37;1.73;;;;;;;;;;5035663;28;20244;-72
2023/12/27 02:06:24;;;;;;;3.50;2.23;;;;;;;;;;5033409;28;20184;-73
2023/12/27 02:08:49;;;;;;;1.80;1.70;;;;;;;;;;5015178;28;20261;-73
2023/12/27 02:11:14;;;;;;;2.43;1.50;;;;;;;;;;5031547;28;20182;-73
2023/12/27 02:13:43;;;;;;;1.87;1.77;;;;;;;;;;5015590;28;20246;-73
2023/12/27 02:16:08;;;;;;;3.07;1.80;;;;;;;;;;5031602;28;20196;-73
2023/12/27 02:18:33;;;;;;;3.87;1.90;;;;;;;;;;5006133;28;20273;-72
2023/12/27 02:20:59;;;;;;;2.73;1.70;;;;;;;;;;5028189;28;20225;-73
2023/12/27 02:23:25;;;;;;;1.70;1.60;;;;;;;;;;5011079;28;20186;-73
2023/12/27 02:25:51;;;;;;;2.53;1.47;;;;;;;;;;5009812;28;20179;-73
2023/12/27 02:28:16;;;;;;;2.03;1.67;;;;;;;;;;5031991;28;20186;-73
2023/12/27 02:30:41;;;;;;;2.37;2.03;;;;;;;;;;5029678;28;20182;-73
2023/12/27 02:33:07;;;;;;;2.43;2.00;;;;;;;;;;5023810;28;20220;-73
2023/12/27 02:35:32;;;;;;;1.50;1.40;;;;;;;;;;5006325;28;20194;-73
2023/12/27 02:37:58;;;;;;;1.50;1.40;;;;;;;;;;5007971;28;20182;-72
2023/12/27 02:40:23;;;;;;;1.93;1.73;;;;;;;;;;5006964;28;20198;-73
2023/12/27 02:42:49;;;;;;;1.60;1.50;;;;;;;;;;5012814;28;20176;-73
2023/12/27 02:45:14;;;;;;;1.30;1.20;;;;;;;;;;5026062;28;20180;-73
2023/12/27 02:47:39;;;;;;;1.20;1.10;;;;;;;;;;5027863;28;20186;-73
2023/12/27 02:50:05;;;;;;;1.10;1.10;;;;;;;;;;5027506;28;20196;-73
2023/12/27 02:52:30;;;;;;;1.23;1.13;;;;;;;;;;5013053;28;20189;-73
2023/12/27 02:54:55;;;;;;;1.30;1.20;;;;;;;;;;5016334;28;20197;-73
2023/12/27 02:57:20;;;;;;;1.13;1.10;;;;;;;;;;5029579;28;20191;-73
2023/12/27 02:59:46;;;;;;;1.40;1.30;;;;;;;;;;5028552;28;20217;-73
2023/12/27 03:02:11;;;;;;;1.30;1.20;;;;;;;;;;5031030;28;20266;-73
2023/12/27 03:04:36;;;;;;;1.17;1.10;;;;;;;;;;5028750;28;20183;-72
2023/12/27 03:07:01;;;;;;;1.43;1.10;;;;;;;;;;5031394;28;20175;-73
2023/12/27 03:09:27;;;;;;;1.40;1.30;;;;;;;;;;5014401;28;20188;-73
2023/12/27 03:11:52;;;;;;;1.30;1.20;;;;;;;;;;5023797;28;20176;-73
2023/12/27 03:14:17;;;;;;;1.80;1.20;;;;;;;;;;5010814;28;20461;-73
2023/12/27 03:16:42;;;;;;;1.37;1.27;;;;;;;;;;5023003;28;20327;-73
2023/12/27 03:19:08;;;;;;;1.73;1.43;;;;;;;;;;5018500;28;20281;-73
2023/12/27 03:21:33;;;;;;;2.80;1.23;;;;;;;;;;5016348;28;20233;-73
2023/12/27 03:23:58;;;;;;;1.17;1.07;;;;;;;;;;5025689;28;20182;-73
2023/12/27 03:26:23;;;;;;;3.17;1.20;;;;;;;;;;5018765;28;20277;-72
2023/12/27 03:28:48;;;;;;;1.30;1.20;;;;;;;;;;5008274;28;20274;-73
2023/12/27 03:31:14;;;;;;;1.57;1.20;;;;;;;;;;5022499;28;20188;-72
2023/12/27 03:33:39;;;;;;;1.30;1.20;;;;;;;;;;5030629;28;20248;-73
2023/12/27 03:36:04;;;;;;;1.63;1.27;;;;;;;;;;5023176;28;20446;-73
2023/12/27 03:38:29;;;;;;;1.40;1.30;;;;;;;;;;5014584;28;20275;-73
2023/12/27 03:40:54;;;;;;;1.50;1.30;;;;;;;;;;5022301;28;20285;-73
2023/12/27 03:43:20;;;;;;;1.40;1.13;;;;;;;;;;5029838;28;20174;-72
2023/12/27 03:45:45;;;;;;;1.70;1.27;;;;;;;;;;5025538;28;20208;-74
2023/12/27 03:48:10;;;;;;;1.17;1.17;;;;;;;;;;5010844;28;20173;-73
2023/12/27 03:50:35;;;;;;;1.40;1.30;;;;;;;;;;5012507;28;20260;-73
2023/12/27 03:53:01;;;;;;;1.70;1.17;;;;;;;;;;5027855;28;20182;-73
2023/12/27 03:55:26;;;;;;;1.40;1.30;;;;;;;;;;5027179;28;20201;-73
2023/12/27 03:57:52;;;;;;;1.13;0.90;;;;;;;;;;5030039;28;20191;-73
2023/12/27 04:00:17;;;;;;;1.30;1.10;;;;;;;;;;5017175;28;20680;-73
2023/12/27 04:02:43;;;;;;;1.10;1.00;;;;;;;;;;5031361;28;20177;-73
2023/12/27 04:05:08;;;;;;;1.30;1.20;;;;;;;;;;5013893;28;20229;-73
2023/12/27 04:07:34;;;;;;;1.03;1.03;;;;;;;;;;5011782;28;20208;-73
2023/12/27 04:09:59;;;;;;;1.50;1.40;;;;;;;;;;5008119;28;20177;-73
2023/12/27 04:12:24;;;;;;;1.50;1.40;;;;;;;;;;5029464;28;20207;-73
2023/12/27 04:14:49;;;;;;;2.03;1.20;;;;;;;;;;5012083;28;20208;-73
2023/12/27 04:17:15;;;;;;;1.00;1.00;;;;;;;;;;5022022;28;20191;-73
2023/12/27 04:19:40;;;;;;;0.80;0.80;;;;;;;;;;5029399;28;20244;-73
2023/12/27 04:22:05;;;;;;;0.90;0.90;;;;;;;;;;5030235;28;20253;-73
2023/12/27 04:24:31;;;;;;;1.03;0.90;;;;;;;;;;5028308;28;20227;-72
2023/12/27 04:26:56;;;;;;;0.83;0.83;;;;;;;;;;5021488;28;20181;-72
2023/12/27 04:29:21;;;;;;;1.90;0.90;;;;;;;;;;5029459;28;20172;-73
2023/12/27 04:31:47;;;;;;;0.80;0.80;;;;;;;;;;5012756;28;20182;-73
2023/12/27 04:34:12;;;;;;;1.13;1.03;;;;;;;;;;5015791;28;20168;-73
2023/12/27 04:36:37;;;;;;;0.90;0.90;;;;;;;;;;5030021;28;20256;-73
2023/12/27 04:39:02;;;;;;;1.30;1.10;;;;;;;;;;5026643;28;20273;-73
2023/12/27 04:41:28;;;;;;;1.30;1.20;;;;;;;;;;5029431;28;20224;-73
2023/12/27 04:43:53;;;;;;;1.40;1.10;;;;;;;;;;5013125;28;20182;-73
2023/12/27 04:46:18;;;;;;;2.37;1.10;;;;;;;;;;5029402;28;20265;-73
2023/12/27 04:48:43;;;;;;;0.83;0.83;;;;;;;;;;5017936;28;20177;-73
2023/12/27 04:51:08;;;;;;;1.37;1.27;;;;;;;;;;5028477;28;20209;-73
2023/12/27 04:53:33;;;;;;;1.20;1.10;;;;;;;;;;5032782;28;20190;-73
2023/12/27 04:55:59;;;;;;;1.20;1.10;;;;;;;;;;5012418;28;20194;-73
2023/12/27 04:58:24;;;;;;;1.57;1.43;;;;;;;;;;5027875;28;20264;-73
2023/12/27 05:00:49;;;;;;;3.63;1.43;;;;;;;;;;5028705;28;20591;-72
2023/12/27 05:03:14;;;;;;;1.30;1.20;;;;;;;;;;5013529;28;20180;-73
2023/12/27 05:05:40;;;;;;;2.07;1.60;;;;;;;;;;5027231;28;20240;-73
2023/12/27 05:08:05;;;;;;;2.60;1.10;;;;;;;;;;5007434;28;20189;-73
2023/12/27 05:10:30;;;;;;;1.33;1.23;;;;;;;;;;5028721;28;20282;-72
2023/12/27 05:12:56;;;;;;;0.87;0.87;;;;;;;;;;5011767;28;20188;-73
2023/12/27 05:15:21;;;;;;;1.20;0.93;;;;;;;;;;5033306;28;20276;-73
2023/12/27 05:17:46;;;;;;;1.77;1.47;;;;;;;;;;5007166;28;20215;-72
2023/12/27 05:20:11;;;;;;;1.90;1.37;;;;;;;;;;5029534;28;20198;-73
2023/12/27 05:22:39;;;;;;;3.20;1.73;;;;;;;;;;5015562;28;20181;-73
2023/12/27 05:25:05;;;;;;;4.00;1.93;;;;;;;;;;5004382;28;20210;-72
2023/12/27 05:27:30;;;;;;;1.87;1.60;;;;;;;;;;5011578;28;20180;-73
2023/12/27 05:29:55;;;;;;;2.20;1.73;;;;;;;;;;5028113;28;20190;-73
2023/12/27 05:32:20;;;;;;;3.57;2.93;;;;;;;;;;5005281;28;20178;-72
2023/12/27 05:34:46;;;;;;;2.83;1.60;;;;;;;;;;5033017;28;20211;-72
2023/12/27 05:37:11;;;;;;;2.80;1.60;;;;;;;;;;5016327;28;20192;-72
2023/12/27 05:39:36;;;;;;;2.47;1.53;;;;;;;;;;5032267;28;20206;-72
2023/12/27 05:42:02;;;;;;;1.83;1.40;;;;;;;;;;5029483;28;20203;-72
2023/12/27 05:44:27;;;;;;;3.07;1.63;;;;;;;;;;5035314;28;20183;-72
2023/12/27 05:46:52;;;;;;;2.03;1.83;;;;;;;;;;5030214;28;20182;-72
2023/12/27 05:49:17;;;;;;;2.27;1.53;;;;;;;;;;5024945;28;20178;-72
2023/12/27 05:51:42;;;;;;;2.70;2.50;;;;;;;;;;5032232;28;20180;-72
2023/12/27 05:54:09;;;;;;;1.70;1.60;;;;;;;;;;5010209;28;20177;-72
2023/12/27 05:56:34;;;;;;;1.63;1.53;;;;;;;;;;5015098;28;20210;-72
2023/12/27 05:59:00;;;;;;;1.83;1.50;;;;;;;;;;5031577;28;20197;-72
2023/12/27 06:01:25;;;;;;;3.10;1.80;;;;;;;;;;5033966;28;20262;-72
2023/12/27 06:03:50;;;;;;;5.80;1.80;;;;;;;;;;5029011;28;20270;-72
2023/12/27 06:06:15;;;;;;;2.00;1.67;;;;;;;;;;5032085;28;20181;-72
2023/12/27 06:08:40;;;;;;;3.13;1.70;;;;;;;;;;5014387;28;20382;-72
2023/12/27 06:11:11;;;;;;;2.73;1.73;;;;;;;;;;5036303;28;20171;-72
2023/12/27 06:13:36;;;;;;;1.93;1.73;;;;;;;;;;5032589;28;20190;-73
2023/12/27 06:16:02;;;;;;;2.57;2.20;;;;;;;;;;5023204;28;20173;-72
2023/12/27 06:18:28;;;;;;;3.27;2.30;;;;;;;;;;5010882;28;20183;-72
2023/12/27 06:20:53;;;;;;;3.33;2.10;;;;;;;;;;5033665;28;20221;-72
2023/12/27 06:23:18;;;;;;;2.77;2.30;;;;;;;;;;5035124;28;20193;-72
2023/12/27 06:25:43;;;;;;;9.57;6.13;;;;;;;;;;5013009;28;20188;-72
2023/12/27 06:28:08;;;;;;;5.00;3.97;;;;;;;;;;5032054;28;20221;-72
2023/12/27 06:30:33;;;;;;;5.60;5.07;;;;;;;;;;5031699;28;20220;-72
2023/12/27 06:32:59;;;;;;;4.23;3.37;;;;;;;;;;5030368;28;20200;-72
2023/12/27 06:35:24;;;;;;;5.83;3.47;;;;;;;;;;5016271;28;20298;-72
2023/12/27 06:37:49;;;;;;;6.00;3.60;;;;;;;;;;5031655;28;20191;-72
2023/12/27 06:40:14;;;;;;;5.07;3.83;;;;;;;;;;5026538;28;20201;-72
2023/12/27 06:42:39;;;;;;;5.00;4.53;;;;;;;;;;5013660;28;20182;-72
2023/12/27 06:45:05;;;;;;;3.87;3.17;;;;;;;;;;5013972;28;20171;-72
2023/12/27 06:47:30;;;;;;;5.30;2.70;;;;;;;;;;5014447;28;20213;-72
2023/12/27 06:49:55;;;;;;;2.53;2.20;;;;;;;;;;5027720;28;20191;-72
2023/12/27 06:52:20;;;;;;;3.03;2.50;;;;;;;;;;5027426;28;20192;-72
2023/12/27 06:54:46;;;;;;;2.50;2.10;;;;;;;;;;5030994;28;20191;-72
2023/12/27 06:57:11;;;;;;;6.07;2.40;;;;;;;;;;5028933;28;20206;-72
2023/12/27 06:59:37;;;;;;;2.40;2.20;;;;;;;;;;5009835;28;20178;-72
2023/12/27 07:02:04;;;;;;;2.57;2.07;;;;;;;;;;5013376;28;20270;-72
2023/12/27 07:04:29;;;;;;;6.93;2.60;;;;;;;;;;5031804;28;20192;-72
2023/12/27 07:06:55;;;;;;;4.20;2.87;;;;;;;;;;5031394;28;20183;-72
2023/12/27 07:09:20;;;;;;;3.20;2.50;;;;;;;;;;5033320;28;20173;-72
2023/12/27 07:11:45;;;;;;;3.67;2.63;;;;;;;;;;5029299;28;20169;-72
2023/12/27 07:14:10;;;;;;;3.40;2.43;;;;;;;;;;5027710;28;20198;-72
2023/12/27 07:16:35;;;;;;;3.37;2.17;;;;;;;;;;5013775;28;20185;-72
2023/12/27 07:19:01;;;;;;;5.40;2.50;;;;;;;;;;5012047;28;20203;-74
2023/12/27 07:21:26;;;;;;;3.20;2.40;;;;;;;;;;5008851;28;20228;-72
2023/12/27 07:23:51;;;;;;;5.47;2.93;;;;;;;;;;5029051;28;20228;-73
2023/12/27 07:26:16;;;;;;;3.10;2.73;;;;;;;;;;5025618;28;20259;-72
2023/12/27 07:28:42;;;;;;;3.97;2.40;;;;;;;;;;5025826;28;20181;-71
2023/12/27 07:31:07;;;;;;;5.00;2.90;;;;;;;;;;5006734;28;20191;-72
2023/12/27 07:33:35;;;;;;;4.43;3.23;;;;;;;;;;5007225;28;20198;-72
2023/12/27 07:36:01;;;;;;;4.77;3.03;;;;;;;;;;5008623;28;20184;-72
2023/12/27 07:38:26;;;;;;;5.87;3.63;;;;;;;;;;5024724;28;20231;-73
2023/12/27 07:40:51;;;;;;;5.43;3.53;;;;;;;;;;5029682;28;20210;-72
2023/12/27 07:43:17;;;;;;;4.67;3.60;;;;;;;;;;5030124;28;20260;-72
2023/12/27 07:45:44;;;;;;;5.10;3.17;;;;;;;;;;5011192;28;20188;-72
2023/12/27 07:48:09;;;;;;;5.33;3.97;;;;;;;;;;5027214;28;20213;-72
2023/12/27 07:50:36;;;;;;;5.50;3.33;;;;;;;;;;5014152;28;20180;-72
2023/12/27 07:53:01;;;;;;;4.97;3.30;;;;;;;;;;5014212;28;20199;-72
2023/12/27 07:55:27;;;;;;;6.13;3.40;;;;;;;;;;5012936;28;20182;-72
2023/12/27 07:57:52;;;;;;;3.93;3.37;;;;;;;;;;5014492;28;20192;-73
2023/12/27 08:00:18;;;;;;;6.93;3.33;;;;;;;;;;5014117;28;20203;-72
2023/12/27 08:02:43;;;;;;;4.37;2.83;;;;;;;;;;5030312;28;20200;-72
2023/12/27 08:05:08;;;;;;;5.30;2.80;;;;;;;;;;5012671;28;20184;-72
2023/12/27 08:07:33;;;;;;;5.60;2.90;;;;;;;;;;5012729;28;20249;-72
2023/12/27 08:09:58;;;;;;;5.07;3.03;;;;;;;;;;5029228;28;20194;-72
2023/12/27 08:12:24;;;;;;;6.20;5.60;;;;;;;;;;5022043;28;20180;-73
2023/12/27 08:14:49;;;;;;;4.57;3.73;;;;;;;;;;5027324;28;20183;-72
2023/12/27 08:17:15;;;;;;;10.00;6.27;;;;;;;;;;5030499;28;20197;-72
2023/12/27 08:19:40;;;;;;;7.00;4.27;;;;;;;;;;5029181;28;20208;-73
2023/12/27 08:22:06;;;;;;;7.73;4.57;;;;;;;;;;5030680;28;20218;-72
2023/12/27 08:24:31;;;;;;;4.73;3.40;;;;;;;;;;5030458;28;20236;-72
2023/12/27 08:26:56;;;;;;;5.30;3.13;;;;;;;;;;5025945;28;20238;-72
2023/12/27 08:29:22;;;;;;;3.10;2.53;;;;;;;;;;5024232;28;20186;-73
2023/12/27 08:31:47;;;;;;;4.83;2.77;;;;;;;;;;5023110;28;20177;-72
2023/12/27 08:34:12;;;;;;;6.13;4.47;;;;;;;;;;5017383;28;20189;-72
2023/12/27 08:36:39;;;;;;;2.30;2.10;;;;;;;;;;5010970;28;20177;-72
2023/12/27 08:39:04;;;;;;;6.43;3.13;;;;;;;;;;5028842;28;20183;-73
2023/12/27 08:41:29;;;;;;;3.20;2.90;;;;;;;;;;5030241;28;20194;-72
2023/12/27 08:43:54;;;;;;;5.47;3.90;;;;;;;;;;5030935;28;20188;-72
2023/12/27 08:46:20;;;;;;;5.57;3.53;;;;;;;;;;5014226;28;20229;-72
2023/12/27 08:48:46;;;;;;;8.10;4.30;;;;;;;;;;5032292;28;20189;-72
2023/12/27 08:51:11;;;;;;;5.43;3.40;;;;;;;;;;5030957;28;20185;-72
2023/12/27 08:53:37;;;;;;;6.37;2.60;;;;;;;;;;5029995;28;20185;-72
2023/12/27 08:56:02;;;;;;;6.97;2.60;;;;;;;;;;5010067;28;20324;-72
2023/12/27 08:58:27;;;;;;;4.53;2.37;;;;;;;;;;5013078;28;20239;-71
2023/12/27 09:00:53;;;;;;;2.93;2.63;;;;;;;;;;5025392;28;20201;-72
2023/12/27 09:03:18;;;;;;;5.10;2.57;;;;;;;;;;5008177;28;20183;-72
2023/12/27 09:05:43;;;;;;;2.70;2.27;;;;;;;;;;5010883;28;20178;-73
2023/12/27 09:08:09;;;;;;;2.90;2.10;;;;;;;;;;5011672;28;20176;-72
2023/12/27 09:10:35;;;;;;;5.30;2.57;;;;;;;;;;5029410;28;20178;-72
2023/12/27 09:13:00;;;;;;;3.30;1.93;;;;;;;;;;5006982;28;20180;-72
2023/12/27 09:15:26;;;;;;;3.33;2.30;;;;;;;;;;5014911;28;20237;-72
2023/12/27 09:17:51;;;;;;;3.40;2.03;;;;;;;;;;5009395;28;20213;-72
2023/12/27 09:20:16;;;;;;;4.03;2.10;;;;;;;;;;5012440;28;20208;-72
2023/12/27 09:22:41;;;;;;;2.73;2.30;;;;;;;;;;5004530;28;20187;-75
2023/12/27 09:25:06;;;;;;;3.50;2.77;;;;;;;;;;5007793;28;20205;-72
2023/12/27 09:27:32;;;;;;;2.30;2.00;;;;;;;;;;5021369;28;20245;-72
2023/12/27 09:29:57;;;;;;;2.57;2.10;;;;;;;;;;5009280;28;20181;-72
2023/12/27 09:32:22;;;;;;;4.63;2.37;;;;;;;;;;5022795;28;20220;-72
2023/12/27 09:34:47;;;;;;;4.13;2.13;;;;;;;;;;5010457;28;20175;-72
2023/12/27 09:37:13;;;;;;;3.23;2.53;;;;;;;;;;5005196;28;20221;-72
2023/12/27 09:39:38;;;;;;;4.23;2.23;;;;;;;;;;5023232;28;20240;-73
2023/12/27 09:42:04;;;;;;;2.67;2.10;;;;;;;;;;5021535;28;20182;-72
2023/12/27 09:44:32;;;;;;;2.40;2.20;;;;;;;;;;5028050;28;20173;-72
2023/12/27 09:46:57;;;;;;;2.37;2.17;;;;;;;;;;5001541;28;20185;-72
2023/12/27 09:49:23;;;;;;;2.70;1.70;;;;;;;;;;5023500;28;20248;-72
2023/12/27 09:51:48;;;;;;;3.43;1.77;;;;;;;;;;5002177;28;20188;-72
2023/12/27 09:54:16;;;;;;;1.70;1.60;;;;;;;;;;5012609;28;20350;-72
2023/12/27 09:56:42;;;;;;;3.10;1.77;;;;;;;;;;5011413;28;20319;-72
2023/12/27 09:59:11;;;;;;;2.37;1.77;;;;;;;;;;5011233;28;20181;-72
2023/12/27 10:01:41;;;;;;;3.40;2.20;;;;;;;;;;5006924;28;20214;-72
2023/12/27 10:04:11;;;;;;;1.70;1.60;;;;;;;;;;5007030;28;20189;-72
2023/12/27 10:06:36;;;;;;;2.80;2.03;;;;;;;;;;5030356;28;20218;-72
2023/12/27 10:09:02;;;;;;;2.07;1.87;;;;;;;;;;5005895;28;20441;-72
2023/12/27 10:11:27;;;;;;;2.20;1.70;;;;;;;;;;5027665;28;20182;-72
2023/12/27 10:13:53;;;;;;;3.63;1.87;;;;;;;;;;5018331;28;20185;-72
2023/12/27 10:16:18;;;;;;;3.67;1.93;;;;;;;;;;5032564;28;20209;-72
2023/12/27 10:18:49;;;;;;;2.20;2.00;;;;;;;;;;5026552;28;20188;-72
2023/12/27 10:21:14;;;;;;;2.30;1.80;;;;;;;;;;5005451;28;20226;-72
2023/12/27 10:23:40;;;;;;;3.10;1.90;;;;;;;;;;5001590;28;20180;-72
2023/12/27 10:26:05;;;;;;;5.03;1.70;;;;;;;;;;5000306;28;20263;-72
2023/12/27 10:28:30;;;;;;;1.87;1.70;;;;;;;;;;5000689;28;20179;-72
2023/12/27 10:30:55;;;;;;;2.13;1.93;;;;;;;;;;5018358;28;20189;-72
2023/12/27 10:33:21;;;;;;;2.03;1.83;;;;;;;;;;5036905;28;20192;-72
2023/12/27 10:35:46;;;;;;;2.97;1.73;;;;;;;;;;5035054;28;20213;-72
2023/12/27 10:38:12;;;;;;;4.50;1.90;;;;;;;;;;5035817;28;20196;-72
2023/12/27 10:40:39;;;;;;;2.63;1.50;;;;;;;;;;5038303;28;20206;-72
2023/12/27 10:43:05;;;;;;;2.53;1.90;;;;;;;;;;5024968;28;20178;-72
2023/12/27 10:45:30;;;;;;;2.00;1.40;;;;;;;;;;5017939;28;20186;-72
2023/12/27 10:47:57;;;;;;;2.30;1.70;;;;;;;;;;5010265;28;20183;-72
2023/12/27 10:50:24;;;;;;;1.80;1.67;;;;;;;;;;5030649;28;20178;-72
2023/12/27 10:52:55;;;;;;;1.80;1.70;;;;;;;;;;5033195;28;20506;-72
2023/12/27 10:55:22;;;;;;;1.63;1.53;;;;;;;;;;5020204;28;20174;-72
2023/12/27 10:57:53;;;;;;;2.53;1.30;;;;;;;;;;5015845;28;20188;-72
2023/12/27 11:00:19;;;;;;;1.30;1.20;;;;;;;;;;5034381;28;20203;-72
2023/12/27 11:02:44;;;;;;;1.47;1.37;;;;;;;;;;5031203;28;20185;-72
2023/12/27 11:05:10;;;;;;;2.47;1.80;;;;;;;;;;5022484;28;20177;-72
2023/12/27 11:07:40;;;;;;;1.90;1.80;;;;;;;;;;5034505;28;20178;-72
2023/12/27 11:10:05;;;;;;;2.30;1.27;;;;;;;;;;5032403;28;20182;-72
2023/12/27 11:12:32;;;;;;;1.60;1.50;;;;;;;;;;5029968;28;20186;-72
2023/12/27 11:14:58;;;;;;;3.13;1.63;;;;;;;;;;5014063;28;20189;-72
2023/12/27 11:17:26;;;;;;;1.30;1.10;;;;;;;;;;5012563;28;20182;-72
2023/12/27 11:19:53;;;;;;;4.47;3.27;;;;;;;;;;5013752;28;20211;-72
2023/12/27 11:22:18;;;;;;;3.03;2.73;;;;;;;;;;5028317;28;20242;-71
2023/12/27 11:24:43;;;;;;;7.87;6.27;;;;;;;;;;5030969;28;20183;-72
2023/12/27 11:27:08;;;;;;;6.23;5.73;;;;;;;;;;5029756;28;20259;-72
2023/12/27 11:29:34;;;;;;;4.67;3.43;;;;;;;;;;5026282;28;20169;-72
2023/12/27 11:31:59;;;;;;;4.37;3.03;;;;;;;;;;5022359;28;20187;-72
2023/12/27 11:34:24;;;;;;;8.83;5.33;;;;;;;;;;5029985;28;20507;-72
2023/12/27 11:36:50;;;;;;;24.13;11.87;;;;;;;;;;5004263;28;20175;-71
2023/12/27 11:39:18;;;;;;;62.13;35.20;;;;;;;;;;5026833;28;20304;-71
2023/12/27 11:41:44;;;;;;;40.53;20.23;;;;;;;;;;5025997;28;20354;-72
2023/12/27 11:44:09;;;;;;;23.43;11.93;;;;;;;;;;5002875;28;20194;-72
2023/12/27 11:46:34;;;;;;;30.10;16.10;;;;;;;;;;5029425;28;20327;-72
2023/12/27 11:49:00;;;;;;;3.30;2.80;;;;;;;;;;5020960;28;20182;-72
2023/12/27 11:51:27;;;;;;;56.10;30.13;;;;;;;;;;5013028;28;20258;-72
2023/12/27 11:53:55;;;;;;;3.37;2.23;;;;;;;;;;5024685;28;20175;-71
2023/12/27 11:56:21;;;;;;;5.67;3.90;;;;;;;;;;5031393;28;20180;-72
2023/12/27 11:58:46;;;;;;;14.90;9.03;;;;;;;;;;5028166;28;20183;-71
2023/12/27 12:01:23;;;;;;;51.63;26.03;;;;;;;;;;5017863;28;20190;-72
2023/12/27 12:03:54;;;;;;;5.57;2.43;;;;;;;;;;5029151;28;20181;-72
2023/12/27 12:06:36;;;;;;;10.17;5.33;;;;;;;;;;5023016;28;20234;-72
2023/12/27 12:09:01;;;;;;;9.97;4.67;;;;;;;;;;5007619;28;20190;-72
2023/12/27 12:11:27;;;;;;;84.43;42.80;;;;;;;;;;5011285;28;20175;-72
2023/12/27 12:13:53;;;;;;;7.77;4.50;;;;;;;;;;5024054;28;20177;-72
2023/12/27 12:16:18;;;;;;;34.13;18.00;;;;;;;;;;5023632;28;20405;-72
2023/12/27 12:18:44;;;;;;;21.83;12.27;;;;;;;;;;5028940;28;20187;-72
2023/12/27 12:21:09;;;;;;;48.30;24.73;;;;;;;;;;5019331;28;20223;-72
2023/12/27 12:23:34;;;;;;;140.00;62.30;;;;;;;;;;5011304;28;20175;-72
2023/12/27 12:26:01;;;;;;;92.33;40.27;;;;;;;;;;5027151;28;20175;-72
2023/12/27 12:28:28;;;;;;;27.53;13.53;;;;;;;;;;5024824;28;20216;-72
2023/12/27 12:30:54;;;;;;;107.50;42.00;;;;;;;;;;5005688;28;20186;-72
2023/12/27 12:33:19;;;;;;;195.43;71.73;;;;;;;;;;5035561;28;20181;-72
2023/12/27 12:35:45;;;;;;;167.20;59.77;;;;;;;;;;5029981;28;20189;-72
2023/12/27 12:38:10;;;;;;;164.17;62.07;;;;;;;;;;5027947;28;20182;-72
2023/12/27 12:40:36;;;;;;;32.40;14.50;;;;;;;;;;5016078;28;20590;-72
2023/12/27 12:43:03;;;;;;;29.43;13.17;;;;;;;;;;5027868;28;20318;-72
2023/12/27 12:45:28;;;;;;;34.77;17.07;;;;;;;;;;5023660;28;20179;-72
2023/12/27 12:47:53;;;;;;;28.10;13.10;;;;;;;;;;5023320;28;20186;-72
2023/12/27 12:50:19;;;;;;;23.37;10.03;;;;;;;;;;5014316;28;20171;-72
2023/12/27 12:52:45;;;;;;;11.70;7.17;;;;;;;;;;5014170;28;20187;-72
2023/12/27 12:55:11;;;;;;;7.23;3.80;;;;;;;;;;5022837;28;20185;-72
2023/12/27 12:57:37;;;;;;;7.53;5.07;;;;;;;;;;5011135;28;20280;-72
2023/12/27 13:00:05;;;;;;;5.33;3.10;;;;;;;;;;5028989;28;20203;-72
2023/12/27 13:02:30;;;;;;;4.27;3.10;;;;;;;;;;5011637;28;20179;-71
2023/12/27 13:04:58;;;;;;;5.80;3.93;;;;;;;;;;5017845;28;20185;-71
2023/12/27 13:07:28;;;;;;;3.33;2.33;;;;;;;;;;5031931;28;20198;-72
2023/12/27 13:09:53;;;;;;;6.50;3.60;;;;;;;;;;5025986;28;20185;-72
2023/12/27 13:12:19;;;;;;;5.67;4.07;;;;;;;;;;5029404;28;20174;-72
2023/12/27 13:14:44;;;;;;;6.13;3.63;;;;;;;;;;5006215;28;20173;-71
2023/12/27 13:17:09;;;;;;;4.40;3.30;;;;;;;;;;5026380;28;20185;-72
2023/12/27 13:19:34;;;;;;;4.03;2.87;;;;;;;;;;5010496;28;20250;-72
2023/12/27 13:21:59;;;;;;;4.93;3.77;;;;;;;;;;5011813;28;20237;-72
2023/12/27 13:24:25;;;;;;;7.43;3.37;;;;;;;;;;5024983;28;20182;-71
2023/12/27 13:26:51;;;;;;;4.13;3.50;;;;;;;;;;5009359;28;20508;-72
2023/12/27 13:29:17;;;;;;;4.80;2.90;;;;;;;;;;5006908;28;20233;-72
2023/12/27 13:31:42;;;;;;;4.37;3.13;;;;;;;;;;5007024;28;20206;-71
2023/12/27 13:34:07;;;;;;;5.27;3.97;;;;;;;;;;5032264;28;20194;-72
2023/12/27 13:36:32;;;;;;;4.63;3.33;;;;;;;;;;5011239;28;20226;-72
2023/12/27 13:38:57;;;;;;;4.40;3.03;;;;;;;;;;5012048;28;20181;-72
2023/12/27 13:41:23;;;;;;;5.87;4.40;;;;;;;;;;5017537;28;20289;-72
2023/12/27 13:43:48;;;;;;;5.67;3.77;;;;;;;;;;5035969;28;20236;-72
2023/12/27 13:46:13;;;;;;;2.70;2.50;;;;;;;;;;5006200;28;20228;-71
2023/12/27 13:48:39;;;;;;;3.33;3.03;;;;;;;;;;5037018;28;20175;-72
2023/12/27 13:51:04;;;;;;;3.90;3.20;;;;;;;;;;5009215;28;20200;-72
2023/12/27 13:53:29;;;;;;;5.73;3.43;;;;;;;;;;5030548;28;20183;-72
2023/12/27 13:55:54;;;;;;;3.20;2.90;;;;;;;;;;5009066;28;20213;-72
2023/12/27 13:58:20;;;;;;;3.80;2.70;;;;;;;;;;5017938;28;20187;-72
2023/12/27 14:00:45;;;;;;;2.97;2.50;;;;;;;;;;5026712;28;20200;-72
2023/12/27 14:03:11;;;;;;;3.10;2.50;;;;;;;;;;5031499;28;20171;-71
2023/12/27 14:05:38;;;;;;;3.13;2.83;;;;;;;;;;5015934;28;20209;-72
2023/12/27 14:08:04;;;;;;;5.33;3.50;;;;;;;;;;5020436;28;20240;-72
2023/12/27 14:10:30;;;;;;;3.73;3.10;;;;;;;;;;5024262;28;20249;-72
2023/12/27 14:12:55;;;;;;;5.50;2.67;;;;;;;;;;5007575;28;20220;-72
2023/12/27 14:15:21;;;;;;;5.40;4.60;;;;;;;;;;5023067;28;20186;-72
2023/12/27 14:17:46;;;;;;;3.10;2.70;;;;;;;;;;5014339;28;20242;-72
2023/12/27 14:20:12;;;;;;;2.73;2.30;;;;;;;;;;5009234;28;20214;-72
2023/12/27 14:22:39;;;;;;;3.80;2.23;;;;;;;;;;5010733;28;20202;-72
2023/12/27 14:25:04;;;;;;;2.57;1.90;;;;;;;;;;5029654;28;20214;-72
2023/12/27 14:27:30;;;;;;;6.67;2.60;;;;;;;;;;5009369;28;20206;-72
2023/12/27 14:29:56;;;;;;;2.73;1.80;;;;;;;;;;5028752;28;20182;-72